Time;durP1;ratioP1;P1;durP2;ratioP2;P2;SDS_P1;SDS_P2;PMS_P1;PMS_P2;Temp;Humidity;BMP_temperature;BMP_pressure;BME280_temperature;BME280_humidity;BME280_pressure;Samples;Min_cycle;Max_cycle;Signal;HPM_P1;HPM_P2
2022/06/10 00:01:18;;;;;;;24.00;14.32;;;;;;;;;;4980987;28;19926;-60
2022/06/10 00:03:45;;;;;;;28.88;16.02;;;;;;;;;;4978319;28;20054;-58
2022/06/10 00:06:12;;;;;;;19.42;14.63;;;;;;;;;;4976721;28;20078;-60
2022/06/10 00:08:47;;;;;;;23.45;15.38;;;;;;;;;;4983239;28;20082;-60
2022/06/10 00:11:14;;;;;;;24.40;17.00;;;;;;;;;;4979192;28;20077;-61
2022/06/10 00:13:42;;;;;;;32.45;15.95;;;;;;;;;;4980331;28;20063;-61
2022/06/10 00:16:17;;;;;;;25.55;14.27;;;;;;;;;;4980095;28;20514;-58
2022/06/10 00:18:44;;;;;;;20.05;15.32;;;;;;;;;;4980205;28;20058;-60
2022/06/10 00:21:12;;;;;;;20.05;14.98;;;;;;;;;;4981400;28;20055;-57
2022/06/10 00:23:45;;;;;;;25.23;16.30;;;;;;;;;;4978012;28;20481;-51
2022/06/10 00:26:12;;;;;;;26.80;17.48;;;;;;;;;;4977606;28;20106;-51
2022/06/10 00:28:40;;;;;;;33.00;17.20;;;;;;;;;;4976278;28;20055;-51
2022/06/10 00:31:13;;;;;;;24.00;15.65;;;;;;;;;;4979346;28;20097;-52
2022/06/10 00:33:40;;;;;;;28.15;16.65;;;;;;;;;;4977775;28;20054;-49
2022/06/10 00:36:08;;;;;;;21.60;15.90;;;;;;;;;;4979237;28;20050;-52
2022/06/10 00:38:41;;;;;;;20.38;16.17;;;;;;;;;;4976568;28;20121;-59
2022/06/10 00:41:07;;;;;;;21.42;15.68;;;;;;;;;;4976958;28;20155;-57
2022/06/10 00:43:34;;;;;;;21.88;14.57;;;;;;;;;;4977402;28;20113;-50
2022/06/10 00:46:09;;;;;;;21.73;14.18;;;;;;;;;;4977004;28;20050;-45
2022/06/10 00:48:40;;;;;;;21.35;15.73;;;;;;;;;;4976979;28;20059;-45
2022/06/10 00:51:19;;;;;;;21.73;16.08;;;;;;;;;;4977902;28;20085;-47
2022/06/10 00:53:57;;;;;;;21.42;15.27;;;;;;;;;;4975772;28;20093;-45
2022/06/10 00:56:30;;;;;;;21.58;15.52;;;;;;;;;;4976659;28;20109;-49
2022/06/10 00:59:30;;;;;;;18.80;15.10;;;;;;;;;;4978981;28;20046;-56
2022/06/10 01:01:59;;;;;;;19.27;14.82;;;;;;;;;;4971695;28;20054;-67
2022/06/10 01:04:32;;;;;;;19.95;15.20;;;;;;;;;;4977069;28;20146;-69
2022/06/10 01:06:59;;;;;;;22.58;15.52;;;;;;;;;;4977049;28;20101;-68
2022/06/10 01:09:27;;;;;;;18.63;13.93;;;;;;;;;;4978312;28;20051;-68
2022/06/10 01:12:09;;;;;;;21.98;14.35;;;;;;;;;;4984786;28;20517;-68
2022/06/10 01:14:47;;;;;;;17.23;14.43;;;;;;;;;;4981446;28;20054;-68
2022/06/10 01:17:23;;;;;;;19.45;14.48;;;;;;;;;;4984936;28;20085;-59
2022/06/10 01:20:08;;;;;;;20.25;15.70;;;;;;;;;;4981092;28;20505;-50
2022/06/10 01:23:00;;;;;;;19.35;15.30;;;;;;;;;;4979255;28;20721;-57
2022/06/10 01:25:45;;;;;;;18.45;15.50;;;;;;;;;;4979257;28;20074;-56
2022/06/10 01:28:47;;;;;;;19.13;14.23;;;;;;;;;;4978490;28;20049;-57
2022/06/10 01:31:21;;;;;;;20.45;15.00;;;;;;;;;;4981845;28;20132;-56
2022/06/10 01:34:02;;;;;;;19.80;15.38;;;;;;;;;;4979525;28;20105;-57
2022/06/10 01:36:44;;;;;;;21.13;15.40;;;;;;;;;;4983199;28;20569;-67
2022/06/10 01:39:28;;;;;;;20.83;15.90;;;;;;;;;;4978535;28;20643;-52
2022/06/10 01:42:00;;;;;;;18.52;15.57;;;;;;;;;;4981354;28;20086;-50
2022/06/10 01:44:59;;;;;;;30.10;17.83;;;;;;;;;;4961249;28;20050;-48
2022/06/10 01:47:29;;;;;;;22.55;16.75;;;;;;;;;;4959765;28;20466;-50
2022/06/10 01:50:11;;;;;;;19.70;15.93;;;;;;;;;;4956832;28;21912;-51
2022/06/10 01:52:58;;;;;;;22.02;16.33;;;;;;;;;;4959762;28;20710;-49
2022/06/10 01:55:34;;;;;;;22.92;15.73;;;;;;;;;;4962408;28;20105;-61
2022/06/10 01:58:13;;;;;;;21.02;16.20;;;;;;;;;;4961397;28;20102;-59
2022/06/10 02:00:50;;;;;;;30.23;15.55;;;;;;;;;;4963045;28;20055;-69
2022/06/10 02:03:21;;;;;;;20.42;15.55;;;;;;;;;;4962457;28;20058;-67
2022/06/10 02:05:58;;;;;;;21.65;14.85;;;;;;;;;;4959135;28;20097;-69
2022/06/10 02:08:28;;;;;;;20.23;15.38;;;;;;;;;;4964396;28;20518;-68
2022/06/10 02:11:10;;;;;;;18.95;14.85;;;;;;;;;;4959433;28;20051;-71
2022/06/10 02:13:47;;;;;;;22.10;15.55;;;;;;;;;;4961530;28;20063;-50
2022/06/10 02:16:23;;;;;;;28.33;16.52;;;;;;;;;;4961581;28;20051;-58
2022/06/10 02:18:54;;;;;;;25.30;18.15;;;;;;;;;;4958665;28;20062;-58
2022/06/10 02:21:31;;;;;;;19.88;15.95;;;;;;;;;;4962766;28;20117;-58
2022/06/10 02:24:03;;;;;;;18.60;15.50;;;;;;;;;;4962316;28;20106;-58
2022/06/10 02:26:37;;;;;;;19.08;15.38;;;;;;;;;;4959697;28;20514;-58
2022/06/10 02:29:08;;;;;;;22.15;16.35;;;;;;;;;;4957888;28;20503;-59
2022/06/10 02:31:38;;;;;;;25.50;16.92;;;;;;;;;;4959411;28;20518;-58
2022/06/10 02:34:12;;;;;;;24.23;17.33;;;;;;;;;;4959249;28;20086;-47
2022/06/10 02:36:45;;;;;;;27.13;18.27;;;;;;;;;;4959461;28;20154;-58
2022/06/10 02:39:30;;;;;;;25.40;17.23;;;;;;;;;;4957967;28;22355;-58
2022/06/10 02:42:06;;;;;;;22.08;17.15;;;;;;;;;;4958589;28;20130;-58
2022/06/10 02:44:46;;;;;;;19.00;12.77;;;;;;;;;;4977296;28;20058;-58
2022/06/10 02:47:12;;;;;;;19.25;15.25;;;;;;;;;;4976620;28;20535;-59
2022/06/10 02:49:38;;;;;;;21.77;16.13;;;;;;;;;;4977518;28;20120;-58
2022/06/10 02:52:13;;;;;;;22.52;17.48;;;;;;;;;;4977345;28;20066;-61
2022/06/10 02:54:40;;;;;;;25.48;17.20;;;;;;;;;;4980334;28;20422;-53
2022/06/10 02:57:11;;;;;;;24.37;17.67;;;;;;;;;;4978055;28;20093;-46
2022/06/10 03:02:50;;;;;;;28.08;18.45;;;;;;;;;;4979124;28;20502;-45
2022/06/10 03:05:37;;;;;;;30.33;18.35;;;;;;;;;;4979651;28;20847;-50
2022/06/10 03:08:23;;;;;;;29.33;18.70;;;;;;;;;;4978528;28;20086;-48
2022/06/10 03:11:15;;;;;;;39.05;20.75;;;;;;;;;;4979425;28;20077;-47
2022/06/10 03:13:44;;;;;;;34.08;20.65;;;;;;;;;;4980272;28;20146;-61
2022/06/10 03:16:28;;;;;;;37.80;22.90;;;;;;;;;;4978726;28;20742;-48
2022/06/10 03:19:17;;;;;;;40.67;25.17;;;;;;;;;;4977657;28;20059;-49
2022/06/10 03:22:06;;;;;;;39.28;26.20;;;;;;;;;;4978528;28;20081;-49
2022/06/10 03:24:36;;;;;;;43.75;26.48;;;;;;;;;;4977108;28;20097;-54
2022/06/10 03:27:14;;;;;;;51.35;25.10;;;;;;;;;;4979880;28;20129;-52
2022/06/10 03:29:53;;;;;;;50.33;28.70;;;;;;;;;;4978250;28;20081;-45
2022/06/10 03:32:47;;;;;;;63.95;29.13;;;;;;;;;;4974598;28;20097;-59
2022/06/10 03:35:13;;;;;;;64.28;33.38;;;;;;;;;;4976396;28;20569;-60
2022/06/10 03:37:47;;;;;;;66.47;34.30;;;;;;;;;;4977289;28;20078;-61
2022/06/10 03:40:18;;;;;;;69.25;38.40;;;;;;;;;;4980344;28;20077;-61
2022/06/10 03:42:47;;;;;;;79.03;39.33;;;;;;;;;;4977597;28;20055;-60
2022/06/10 03:45:25;;;;;;;71.32;38.80;;;;;;;;;;4977294;28;20055;-60
2022/06/10 03:47:51;;;;;;;80.60;41.08;;;;;;;;;;4978718;28;20057;-61
2022/06/10 03:50:21;;;;;;;81.80;43.78;;;;;;;;;;4974773;28;20529;-66
2022/06/10 03:52:54;;;;;;;83.93;45.92;;;;;;;;;;4980933;28;20058;-67
2022/06/10 03:55:21;;;;;;;84.20;46.65;;;;;;;;;;4978001;28;20050;-67
2022/06/10 03:57:48;;;;;;;86.97;48.08;;;;;;;;;;4977748;28;20082;-67
2022/06/10 04:00:23;;;;;;;103.07;50.83;;;;;;;;;;4975681;28;20047;-67
2022/06/10 04:02:49;;;;;;;91.70;51.53;;;;;;;;;;4979731;28;20086;-67
2022/06/10 04:05:16;;;;;;;102.15;54.78;;;;;;;;;;4979554;28;20081;-67
2022/06/10 04:07:49;;;;;;;94.30;50.75;;;;;;;;;;4981483;28;20056;-58
2022/06/10 04:10:17;;;;;;;92.82;52.20;;;;;;;;;;4980294;28;20530;-59
2022/06/10 04:12:43;;;;;;;84.10;50.35;;;;;;;;;;4975496;28;20058;-58
2022/06/10 04:15:17;;;;;;;95.32;53.38;;;;;;;;;;4980441;28;20141;-58
2022/06/10 04:17:45;;;;;;;92.88;54.13;;;;;;;;;;4978701;28;20077;-59
2022/06/10 04:20:11;;;;;;;;;;;;;;;;;;4984010;28;20085;-59
2022/06/10 04:22:44;;;;;;;113.47;55.70;;;;;;;;;;4977639;28;19985;-59
2022/06/10 04:25:11;;;;;;;114.45;59.10;;;;;;;;;;4976690;28;20077;-58
2022/06/10 04:27:37;;;;;;;90.32;52.92;;;;;;;;;;4976129;28;20054;-50
2022/06/10 04:30:20;;;;;;;113.38;58.30;;;;;;;;;;4976194;28;20073;-62
2022/06/10 04:32:46;;;;;;;110.75;57.15;;;;;;;;;;4977313;28;20510;-49
2022/06/10 04:35:21;;;;;;;107.78;58.92;;;;;;;;;;4977411;28;20560;-50
2022/06/10 04:37:48;;;;;;;92.82;56.60;;;;;;;;;;4979176;28;20077;-49
2022/06/10 04:40:19;;;;;;;104.93;60.40;;;;;;;;;;4979266;28;20078;-46
2022/06/10 04:42:59;;;;;;;108.65;59.70;;;;;;;;;;4975490;28;20101;-50
2022/06/10 04:45:36;;;;;;;109.78;59.53;;;;;;;;;;4979066;28;20108;-48
2022/06/10 04:48:11;;;;;;;95.72;57.38;;;;;;;;;;4981984;28;20498;-62
2022/06/10 04:50:38;;;;;;;97.30;57.78;;;;;;;;;;4979713;28;20196;-56
2022/06/10 04:53:04;;;;;;;100.47;57.47;;;;;;;;;;4981198;28;20090;-59
2022/06/10 04:55:37;;;;;;;90.38;54.13;;;;;;;;;;4982307;28;20058;-58
2022/06/10 04:58:04;;;;;;;96.90;55.10;;;;;;;;;;4979310;28;20164;-57
2022/06/10 05:00:37;;;;;;;92.53;55.05;;;;;;;;;;4978922;28;20058;-59
2022/06/10 05:03:11;;;;;;;85.50;52.45;;;;;;;;;;4981548;28;20066;-58
2022/06/10 05:05:38;;;;;;;85.13;52.03;;;;;;;;;;4982688;28;20086;-49
2022/06/10 05:08:05;;;;;;;88.28;52.55;;;;;;;;;;4979921;28;20129;-56
2022/06/10 05:10:38;;;;;;;96.50;56.28;;;;;;;;;;4982347;28;20134;-51
2022/06/10 05:13:04;;;;;;;101.68;53.08;;;;;;;;;;4980799;28;20138;-53
2022/06/10 05:15:31;;;;;;;93.05;53.95;;;;;;;;;;4977496;28;20071;-52
2022/06/10 05:18:04;;;;;;;94.70;54.00;;;;;;;;;;4981436;28;21009;-53
2022/06/10 05:20:36;;;;;;;94.43;55.15;;;;;;;;;;4980121;28;20110;-50
2022/06/10 05:23:03;;;;;;;84.80;51.80;;;;;;;;;;4981552;28;20086;-50
2022/06/10 05:25:37;;;;;;;60.72;41.83;;;;;;;;;;4983022;28;20051;-58
2022/06/10 05:28:05;;;;;;;73.95;46.45;;;;;;;;;;4981365;28;20113;-48
2022/06/10 05:30:32;;;;;;;76.65;48.78;;;;;;;;;;4981166;28;20047;-50
2022/06/10 05:33:07;;;;;;;69.70;44.80;;;;;;;;;;4980738;28;20097;-45
2022/06/10 05:35:34;;;;;;;74.35;43.92;;;;;;;;;;4980430;28;20082;-47
2022/06/10 05:38:00;;;;;;;72.32;44.83;;;;;;;;;;4979068;28;20085;-44
2022/06/10 05:40:35;;;;;;;63.80;40.22;;;;;;;;;;4980320;28;20165;-47
2022/06/10 05:43:08;;;;;;;60.15;39.50;;;;;;;;;;4980326;28;20047;-64
2022/06/10 05:45:49;;;;;;;56.25;39.70;;;;;;;;;;4981082;28;20058;-48
2022/06/10 05:48:16;;;;;;;52.78;32.92;;;;;;;;;;4981124;28;20145;-59
2022/06/10 05:50:49;;;;;;;59.63;39.97;;;;;;;;;;4979188;28;20517;-58
2022/06/10 05:53:16;;;;;;;68.35;41.08;;;;;;;;;;4979540;28;20547;-59
2022/06/10 05:55:42;;;;;;;63.53;40.03;;;;;;;;;;4959137;28;20074;-59
2022/06/10 05:58:16;;;;;;;75.20;37.17;;;;;;;;;;4977226;28;20078;-59
2022/06/10 06:00:42;;;;;;;69.10;40.08;;;;;;;;;;4980654;28;20082;-59
2022/06/10 06:03:09;;;;;;;76.60;41.33;;;;;;;;;;4980536;28;20078;-64
2022/06/10 06:05:42;;;;;;;85.28;42.40;;;;;;;;;;4978668;28;20061;-48
2022/06/10 06:08:09;;;;;;;93.78;46.15;;;;;;;;;;4976404;28;20079;-44
2022/06/10 06:10:35;;;;;;;94.15;47.65;;;;;;;;;;4977517;28;20117;-45
2022/06/10 06:13:10;;;;;;;113.03;50.13;;;;;;;;;;4981838;28;20093;-45
2022/06/10 06:15:36;;;;;;;;;;;;;;;;;;4982869;28;20050;-47
2022/06/10 06:18:03;;;;;;;106.07;52.10;;;;;;;;;;4980939;28;19965;-48
2022/06/10 06:20:36;;;;;;;109.28;53.13;;;;;;;;;;4977046;28;20089;-44
2022/06/10 06:23:03;;;;;;;109.60;52.53;;;;;;;;;;4979814;28;20117;-58
2022/06/10 06:25:30;;;;;;;115.80;54.67;;;;;;;;;;4982189;28;20043;-66
2022/06/10 06:28:04;;;;;;;110.22;55.72;;;;;;;;;;4979255;28;20109;-66
2022/06/10 06:30:32;;;;;;;107.30;54.67;;;;;;;;;;4977620;28;20160;-66
2022/06/10 06:33:00;;;;;;;100.60;52.75;;;;;;;;;;4981564;28;20593;-66
2022/06/10 06:35:35;;;;;;;122.60;57.28;;;;;;;;;;4981941;28;20061;-67
2022/06/10 06:38:02;;;;;;;113.72;57.25;;;;;;;;;;4980512;28;20105;-66
2022/06/10 06:40:29;;;;;;;125.10;57.67;;;;;;;;;;4980230;28;20184;-44
2022/06/10 06:43:09;;;;;;;124.15;59.00;;;;;;;;;;4979001;28;20058;-63
2022/06/10 06:45:45;;;;;;;123.65;58.03;;;;;;;;;;4978902;28;20506;-52
2022/06/10 06:48:20;;;;;;;97.18;51.33;;;;;;;;;;4981812;28;20058;-52
2022/06/10 06:50:47;;;;;;;112.47;53.63;;;;;;;;;;4980368;28;20082;-53
2022/06/10 06:53:14;;;;;;;113.82;55.17;;;;;;;;;;4980708;28;20494;-53
2022/06/10 06:55:47;;;;;;;110.03;53.85;;;;;;;;;;4979764;28;20054;-53
2022/06/10 06:58:15;;;;;;;106.75;53.15;;;;;;;;;;4984347;28;20454;-47
2022/06/10 07:00:45;;;;;;;96.95;51.25;;;;;;;;;;4979743;28;20117;-60
2022/06/10 07:03:19;;;;;;;95.97;52.28;;;;;;;;;;4977925;28;20047;-59
2022/06/10 07:05:46;;;;;;;100.35;51.78;;;;;;;;;;4980192;28;20580;-58
2022/06/10 07:08:12;;;;;;;86.00;48.42;;;;;;;;;;4979273;28;20042;-59
2022/06/10 07:10:45;;;;;;;65.88;42.75;;;;;;;;;;4980025;28;20145;-59
2022/06/10 07:13:12;;;;;;;72.53;43.17;;;;;;;;;;4982783;28;20078;-59
2022/06/10 07:15:41;;;;;;;68.03;42.97;;;;;;;;;;4977982;28;20343;-58
2022/06/10 07:18:15;;;;;;;76.68;43.20;;;;;;;;;;4976829;28;20883;-67
2022/06/10 07:20:41;;;;;;;77.82;41.33;;;;;;;;;;4977737;28;20078;-63
2022/06/10 07:23:07;;;;;;;64.95;38.20;;;;;;;;;;4981050;28;20511;-59
2022/06/10 07:25:41;;;;;;;61.45;36.65;;;;;;;;;;4977797;28;20051;-59
2022/06/10 07:28:11;;;;;;;68.55;37.15;;;;;;;;;;4983079;28;20101;-60
2022/06/10 07:30:38;;;;;;;59.10;34.15;;;;;;;;;;4980576;28;20565;-59
2022/06/10 07:33:12;;;;;;;62.63;34.03;;;;;;;;;;4978563;28;20058;-60
2022/06/10 07:35:39;;;;;;;67.30;33.40;;;;;;;;;;4980433;28;20085;-61
2022/06/10 07:38:09;;;;;;;58.78;30.45;;;;;;;;;;4978868;28;20108;-61
2022/06/10 07:43:39;;;;;;;43.65;25.33;;;;;;;;;;4976790;28;20050;-52
2022/06/10 07:46:20;;;;;;;42.50;25.40;;;;;;;;;;4978991;28;20065;-49
2022/06/10 07:48:47;;;;;;;44.03;19.42;;;;;;;;;;4980801;28;20062;-48
2022/06/10 07:51:21;;;;;;;26.70;11.85;;;;;;;;;;4977525;28;20578;-49
2022/06/10 07:53:49;;;;;;;18.35;7.60;;;;;;;;;;4975537;28;20081;-52
2022/06/10 07:56:17;;;;;;;14.27;6.40;;;;;;;;;;4980963;28;20121;-49
2022/06/10 07:58:50;;;;;;;17.52;5.22;;;;;;;;;;4980137;28;20086;-65
2022/06/10 08:01:17;;;;;;;11.40;5.70;;;;;;;;;;4978577;28;20125;-58
2022/06/10 08:03:46;;;;;;;13.05;4.90;;;;;;;;;;4977529;28;20046;-59
2022/06/10 08:06:20;;;;;;;12.43;5.57;;;;;;;;;;4977417;28;20053;-58
2022/06/10 08:08:47;;;;;;;;;;;;;;;;;;4975812;28;20506;-59
2022/06/10 08:11:13;;;;;;;10.90;5.05;;;;;;;;;;4979217;28;19929;-59
2022/06/10 08:13:47;;;;;;;16.65;4.78;;;;;;;;;;4976421;28;20121;-59
2022/06/10 08:16:14;;;;;;;11.75;4.28;;;;;;;;;;4979314;28;20470;-59
2022/06/10 08:18:41;;;;;;;8.95;3.88;;;;;;;;;;4977538;28;20321;-54
2022/06/10 08:24:01;;;;;;;8.85;3.03;;;;;;;;;;4978075;28;20054;-47
2022/06/10 08:26:36;;;;;;;9.18;3.20;;;;;;;;;;4978720;28;20501;-48
2022/06/10 08:29:03;;;;;;;14.75;4.13;;;;;;;;;;4979954;28;20077;-50
2022/06/10 08:31:30;;;;;;;11.93;3.80;;;;;;;;;;4977211;28;20497;-52
2022/06/10 08:34:03;;;;;;;21.83;4.78;;;;;;;;;;4976486;28;20418;-52
2022/06/10 08:36:30;;;;;;;15.95;4.20;;;;;;;;;;4978382;28;20097;-45
2022/06/10 08:38:57;;;;;;;16.05;4.43;;;;;;;;;;4979130;28;20792;-59
2022/06/10 08:41:33;;;;;;;18.45;4.22;;;;;;;;;;4980918;28;20063;-59
2022/06/10 08:44:08;;;;;;;13.65;4.20;;;;;;;;;;4977493;28;20071;-59
2022/06/10 08:46:50;;;;;;;14.68;4.30;;;;;;;;;;4976371;28;20054;-58
2022/06/10 08:49:35;;;;;;;16.75;4.47;;;;;;;;;;4974838;28;20451;-59
2022/06/10 08:52:25;;;;;;;12.43;4.10;;;;;;;;;;4978672;28;20112;-59
2022/06/10 08:55:10;;;;;;;9.75;3.70;;;;;;;;;;4977444;28;20098;-63
2022/06/10 08:57:44;;;;;;;8.45;4.25;;;;;;;;;;4979542;28;20062;-59
2022/06/10 09:00:16;;;;;;;8.77;3.90;;;;;;;;;;4977099;28;20083;-60
2022/06/10 09:02:47;;;;;;;11.90;3.78;;;;;;;;;;4975381;28;20086;-59
2022/06/10 09:05:23;;;;;;;13.07;4.53;;;;;;;;;;4975937;28;20109;-59
2022/06/10 09:07:52;;;;;;;16.70;4.35;;;;;;;;;;4979163;28;20566;-59
2022/06/10 09:10:23;;;;;;;12.10;4.18;;;;;;;;;;4975972;28;20086;-59
2022/06/10 09:13:15;;;;;;;12.55;4.80;;;;;;;;;;4978433;28;20090;-50
2022/06/10 09:15:45;;;;;;;9.15;4.30;;;;;;;;;;4976826;28;20061;-59
2022/06/10 09:18:29;;;;;;;7.22;4.38;;;;;;;;;;4977846;28;20122;-60
2022/06/10 09:21:16;;;;;;;15.55;3.92;;;;;;;;;;4964625;28;20090;-60
2022/06/10 09:23:49;;;;;;;9.68;4.00;;;;;;;;;;4962052;28;20105;-60
2022/06/10 09:26:23;;;;;;;7.90;4.13;;;;;;;;;;4977357;28;20058;-59
2022/06/10 09:28:56;;;;;;;12.52;3.88;;;;;;;;;;4978061;28;20074;-59
2022/06/10 09:31:28;;;;;;;9.05;4.10;;;;;;;;;;4978010;28;20503;-59
2022/06/10 09:33:58;;;;;;;8.18;4.00;;;;;;;;;;4979808;28;20121;-50
2022/06/10 09:36:31;;;;;;;6.90;3.90;;;;;;;;;;4981836;28;20074;-64
2022/06/10 09:38:57;;;;;;;7.90;4.20;;;;;;;;;;4979543;28;20054;-64
2022/06/10 09:41:30;;;;;;;7.60;4.47;;;;;;;;;;4980495;28;20051;-65
2022/06/10 09:44:10;;;;;;;6.65;3.83;;;;;;;;;;4977913;28;20146;-65
2022/06/10 09:46:44;;;;;;;8.07;3.90;;;;;;;;;;4978543;28;20050;-63
2022/06/10 09:49:20;;;;;;;8.05;4.22;;;;;;;;;;4982450;28;20058;-64
2022/06/10 09:51:53;;;;;;;9.65;4.28;;;;;;;;;;4980670;28;20109;-65
2022/06/10 09:54:45;;;;;;;8.15;3.92;;;;;;;;;;4980203;28;20058;-50
2022/06/10 09:57:11;;;;;;;11.65;4.30;;;;;;;;;;4981769;28;20054;-60
2022/06/10 09:59:54;;;;;;;8.68;4.25;;;;;;;;;;4983717;28;20074;-60
2022/06/10 10:02:40;;;;;;;10.50;3.85;;;;;;;;;;4980592;28;20074;-59
2022/06/10 10:05:22;;;;;;;6.13;3.55;;;;;;;;;;4979324;28;20058;-59
2022/06/10 10:07:51;;;;;;;10.40;3.78;;;;;;;;;;4979506;28;20066;-59
2022/06/10 10:10:31;;;;;;;6.45;4.07;;;;;;;;;;4981094;28;20138;-69
2022/06/10 10:13:13;;;;;;;9.15;4.40;;;;;;;;;;4978180;28;20101;-58
2022/06/10 10:15:54;;;;;;;7.10;4.40;;;;;;;;;;4981053;28;20086;-45
2022/06/10 10:18:40;;;;;;;14.32;5.30;;;;;;;;;;4980897;28;20068;-44
2022/06/10 10:21:22;;;;;;;10.88;4.93;;;;;;;;;;4980537;28;20055;-44
2022/06/10 10:23:50;;;;;;;8.10;3.58;;;;;;;;;;4976695;28;20561;-45
2022/06/10 10:26:25;;;;;;;13.57;3.78;;;;;;;;;;4979518;28;20086;-46
2022/06/10 10:28:57;;;;;;;12.45;3.65;;;;;;;;;;4979491;28;20050;-62
2022/06/10 10:31:36;;;;;;;13.23;3.92;;;;;;;;;;4977639;28;20078;-59
2022/06/10 10:34:04;;;;;;;10.32;3.83;;;;;;;;;;4978291;28;20050;-60
2022/06/10 10:36:30;;;;;;;;;;;;;;;;;;4980668;28;20051;-60
2022/06/10 10:39:13;;;;;;;6.18;3.58;;;;;;;;;;4979299;28;19925;-60
2022/06/10 10:41:42;;;;;;;6.60;3.97;;;;;;;;;;4978936;28;20414;-60
2022/06/10 10:44:42;;;;;;;9.10;3.67;;;;;;;;;;4977439;28;20093;-60
2022/06/10 10:47:26;;;;;;;6.30;3.42;;;;;;;;;;4980309;28;20047;-60
2022/06/10 10:50:03;;;;;;;6.20;3.35;;;;;;;;;;4987261;28;20064;-47
2022/06/10 10:52:37;;;;;;;8.10;3.47;;;;;;;;;;4978371;28;20058;-59
2022/06/10 10:55:11;;;;;;;9.00;3.70;;;;;;;;;;4980748;28;20110;-59
2022/06/10 10:57:41;;;;;;;6.05;3.33;;;;;;;;;;4977851;28;20568;-58
2022/06/10 11:00:10;;;;;;;5.05;2.95;;;;;;;;;;4982506;28;20090;-59
2022/06/10 11:02:51;;;;;;;6.97;3.53;;;;;;;;;;4980796;28;20537;-59
2022/06/10 11:05:23;;;;;;;7.97;3.55;;;;;;;;;;4978364;28;20668;-59
2022/06/10 11:08:05;;;;;;;12.32;3.88;;;;;;;;;;4976964;28;20092;-48
2022/06/10 11:10:34;;;;;;;9.85;3.25;;;;;;;;;;4978220;28;20067;-54
2022/06/10 11:13:07;;;;;;;5.93;3.20;;;;;;;;;;4973969;28;20521;-59
2022/06/10 11:15:35;;;;;;;7.30;3.22;;;;;;;;;;4975821;28;20529;-60
2022/06/10 11:18:02;;;;;;;5.72;2.83;;;;;;;;;;4980519;28;20078;-59
2022/06/10 11:20:36;;;;;;;4.85;3.05;;;;;;;;;;4978892;28;20138;-60
2022/06/10 11:23:18;;;;;;;8.93;3.45;;;;;;;;;;4982229;28;20055;-59
2022/06/10 11:26:01;;;;;;;7.57;3.15;;;;;;;;;;4975175;28;20434;-63
2022/06/10 11:28:33;;;;;;;10.10;2.85;;;;;;;;;;4976537;28;20082;-57
2022/06/10 11:31:26;;;;;;;3.92;2.78;;;;;;;;;;4978766;28;20300;-47
2022/06/10 11:33:55;;;;;;;9.93;3.40;;;;;;;;;;4981311;28;20699;-46
2022/06/10 11:36:43;;;;;;;6.88;2.95;;;;;;;;;;4979481;28;20137;-50
2022/06/10 11:39:31;;;;;;;7.97;3.05;;;;;;;;;;4975693;28;20057;-51
2022/06/10 11:42:09;;;;;;;9.65;3.83;;;;;;;;;;4980961;28;20090;-49
2022/06/10 11:45:04;;;;;;;6.45;3.08;;;;;;;;;;4978194;28;20426;-48
2022/06/10 11:47:41;;;;;;;5.22;2.47;;;;;;;;;;4978330;28;20058;-50
2022/06/10 11:50:12;;;;;;;4.68;2.88;;;;;;;;;;4979540;28;20058;-50
2022/06/10 11:53:06;;;;;;;4.78;2.65;;;;;;;;;;4977287;28;20793;-52
2022/06/10 11:55:41;;;;;;;5.70;3.33;;;;;;;;;;4976356;28;20164;-48
2022/06/10 12:01:08;;;;;;;10.07;3.10;;;;;;;;;;4978533;28;20090;-46
2022/06/10 12:03:41;;;;;;;5.72;3.03;;;;;;;;;;4979093;28;20099;-47
2022/06/10 12:06:10;;;;;;;4.73;2.93;;;;;;;;;;4977854;28;20051;-45
2022/06/10 12:08:36;;;;;;;7.53;3.00;;;;;;;;;;4979641;28;20054;-51
2022/06/10 12:11:12;;;;;;;8.02;2.88;;;;;;;;;;4979528;28;20054;-49
2022/06/10 12:13:42;;;;;;;7.82;2.80;;;;;;;;;;4978684;28;20054;-50
2022/06/10 12:16:09;;;;;;;13.27;3.08;;;;;;;;;;4960864;28;20046;-52
2022/06/10 12:18:45;;;;;;;4.70;3.00;;;;;;;;;;4980859;28;20109;-48
2022/06/10 12:21:28;;;;;;;7.00;2.90;;;;;;;;;;4979536;28;20053;-49
2022/06/10 12:24:01;;;;;;;7.50;3.50;;;;;;;;;;4976467;28;20540;-68
2022/06/10 12:26:34;;;;;;;4.40;3.00;;;;;;;;;;4977836;28;20113;-52
2022/06/10 12:29:10;;;;;;;6.13;2.85;;;;;;;;;;4975520;28;20046;-46
2022/06/10 12:31:43;;;;;;;3.78;2.90;;;;;;;;;;4979362;28;20050;-49
2022/06/10 12:34:18;;;;;;;10.43;2.75;;;;;;;;;;4979719;28;20430;-48
2022/06/10 12:36:56;;;;;;;9.35;2.78;;;;;;;;;;4976110;28;20047;-49
2022/06/10 12:39:22;;;;;;;5.47;2.85;;;;;;;;;;4978279;28;20498;-46
2022/06/10 12:41:54;;;;;;;8.75;3.20;;;;;;;;;;4979734;28;20049;-44
2022/06/10 12:44:41;;;;;;;9.40;3.45;;;;;;;;;;4978205;28;20573;-60
2022/06/10 12:47:18;;;;;;;4.60;2.97;;;;;;;;;;4976781;28;20481;-47
2022/06/10 12:49:59;;;;;;;7.63;3.20;;;;;;;;;;4977170;28;20058;-48
2022/06/10 12:52:35;;;;;;;4.40;2.90;;;;;;;;;;4978421;28;20517;-50
2022/06/10 12:55:22;;;;;;;3.92;2.80;;;;;;;;;;4975882;28;20088;-51
2022/06/10 12:57:48;;;;;;;3.92;2.70;;;;;;;;;;4978695;28;20502;-46
2022/06/10 13:00:22;;;;;;;7.80;2.63;;;;;;;;;;4979338;28;20102;-48
2022/06/10 13:02:49;;;;;;;4.57;2.50;;;;;;;;;;4980291;28;20047;-49
2022/06/10 13:05:16;;;;;;;5.25;2.70;;;;;;;;;;4979556;28;20478;-60
2022/06/10 13:07:50;;;;;;;4.15;2.78;;;;;;;;;;4981390;28;20133;-60
2022/06/10 13:10:33;;;;;;;8.45;2.58;;;;;;;;;;4983450;28;20058;-60
2022/06/10 13:13:12;;;;;;;6.57;2.50;;;;;;;;;;4982371;28;20565;-61
2022/06/10 13:15:38;;;;;;;3.92;2.80;;;;;;;;;;4980103;28;20536;-60
2022/06/10 13:18:17;;;;;;;6.07;2.50;;;;;;;;;;4983839;28;20413;-60
2022/06/10 13:20:50;;;;;;;3.53;2.50;;;;;;;;;;4980954;28;20101;-55
2022/06/10 13:23:19;;;;;;;7.13;2.57;;;;;;;;;;4980199;28;20109;-57
2022/06/10 13:25:47;;;;;;;3.85;2.28;;;;;;;;;;4979265;28;20364;-58
2022/06/10 13:28:25;;;;;;;8.02;2.45;;;;;;;;;;4983279;28;20061;-58
2022/06/10 13:31:01;;;;;;;9.95;2.65;;;;;;;;;;4979269;28;20133;-58
2022/06/10 13:33:35;;;;;;;4.85;2.58;;;;;;;;;;4978973;28;20065;-58
2022/06/10 13:36:02;;;;;;;5.03;2.63;;;;;;;;;;4981880;28;20139;-58
2022/06/10 13:38:36;;;;;;;3.47;2.70;;;;;;;;;;4984156;28;20047;-58
2022/06/10 13:44:14;;;;;;;5.22;2.67;;;;;;;;;;4981326;28;20141;-47
2022/06/10 13:46:55;;;;;;;4.18;2.85;;;;;;;;;;4958772;28;20487;-46
2022/06/10 13:52:36;;;;;;;4.57;3.03;;;;;;;;;;4886515;29;20135;-47
2022/06/10 13:55:20;;;;;;;7.38;3.15;;;;;;;;;;4948490;28;20071;-47
2022/06/10 13:57:59;;;;;;;8.23;2.90;;;;;;;;;;4961351;28;20059;-48
2022/06/10 14:00:28;;;;;;;5.32;2.80;;;;;;;;;;4940571;28;20102;-55
2022/06/10 14:03:03;;;;;;;4.75;2.97;;;;;;;;;;4961973;28;20082;-64
2022/06/10 14:05:30;;;;;;;7.13;3.33;;;;;;;;;;4960814;28;20181;-64
2022/06/10 14:08:00;;;;;;;3.40;2.50;;;;;;;;;;4959484;28;20052;-64
2022/06/10 14:10:43;;;;;;;12.32;3.13;;;;;;;;;;4958630;28;20137;-64
2022/06/10 14:13:22;;;;;;;4.15;2.53;;;;;;;;;;4961421;28;20047;-64
2022/06/10 14:15:58;;;;;;;6.60;2.60;;;;;;;;;;4958819;28;20089;-64
2022/06/10 14:18:26;;;;;;;3.85;2.85;;;;;;;;;;4957955;28;20054;-63
2022/06/10 14:20:58;;;;;;;4.22;2.88;;;;;;;;;;4961987;28;20051;-54
2022/06/10 15:43:58;;;;;;;7.35;2.17;;;;;;;;;;4970643;28;20058;-58
2022/06/10 15:46:34;;;;;;;9.45;2.33;;;;;;;;;;4977225;28;20589;-59
2022/06/10 15:49:00;;;;;;;3.97;2.00;;;;;;;;;;4976493;28;20118;-58
2022/06/10 15:51:31;;;;;;;9.85;2.00;;;;;;;;;;4974559;28;20108;-58
2022/06/10 15:54:11;;;;;;;8.27;2.25;;;;;;;;;;4976780;28;20050;-50
2022/06/10 15:59:32;;;;;;;5.00;1.60;;;;;;;;;;4975321;28;20498;-64
2022/06/10 16:02:00;;;;;;;6.55;1.92;;;;;;;;;;4975867;28;20386;-64
2022/06/10 16:04:32;;;;;;;9.80;2.20;;;;;;;;;;4975413;28;20085;-64
2022/06/10 16:07:05;;;;;;;9.52;1.98;;;;;;;;;;4974571;28;20064;-64
2022/06/10 16:09:33;;;;;;;3.47;1.50;;;;;;;;;;4974006;28;20074;-64
2022/06/10 16:14:53;;;;;;;5.25;1.67;;;;;;;;;;4976027;28;20054;-51
2022/06/10 16:17:24;;;;;;;6.10;1.85;;;;;;;;;;4972257;28;20153;-51
2022/06/10 16:19:51;;;;;;;12.88;1.88;;;;;;;;;;4975691;28;20573;-52
2022/06/10 16:22:25;;;;;;;6.45;2.00;;;;;;;;;;4976120;28;20071;-52
2022/06/10 16:24:54;;;;;;;3.67;1.50;;;;;;;;;;4975135;28;20090;-53
2022/06/10 16:27:20;;;;;;;9.13;1.77;;;;;;;;;;4975162;28;20071;-51
2022/06/10 16:29:55;;;;;;;5.07;1.98;;;;;;;;;;4976081;28;20051;-50
2022/06/10 16:32:23;;;;;;;9.68;1.85;;;;;;;;;;4974103;28;20136;-57
2022/06/10 16:34:49;;;;;;;6.88;1.80;;;;;;;;;;4973188;28;20062;-66
2022/06/10 16:37:43;;;;;;;4.57;1.88;;;;;;;;;;4970401;28;20513;-66
2022/06/10 16:40:10;;;;;;;4.22;1.70;;;;;;;;;;4973226;28;20510;-66
2022/06/10 16:42:51;;;;;;;6.95;1.80;;;;;;;;;;4979766;28;20145;-67
2022/06/10 16:45:20;;;;;;;4.15;1.80;;;;;;;;;;4980021;28;20082;-65
2022/06/10 16:47:55;;;;;;;4.25;1.83;;;;;;;;;;4979823;28;21157;-67
2022/06/10 16:50:23;;;;;;;9.50;2.03;;;;;;;;;;4979530;28;20085;-61